Time;durP1;ratioP1;P1;durP2;ratioP2;P2;SDS_P1;SDS_P2;PMS_P1;PMS_P2;Temp;Humidity;BMP_temperature;BMP_pressure;BME280_temperature;BME280_humidity;BME280_pressure;Samples;Min_cycle;Max_cycle;Signal;HPM_P1;HPM_P2
2022/06/15 00:00:56;;;;;;;2.25;1.00;;;20.60;43.30;;;;;;2656530;52;20963;-73
2022/06/15 00:03:27;;;;;;;3.08;1.27;;;20.60;43.50;;;;;;2396764;53;21004;-75
2022/06/15 00:06:05;;;;;;;2.75;1.20;;;20.50;43.40;;;;;;2400054;53;20928;-73
2022/06/15 00:08:32;;;;;;;2.20;1.17;;;20.50;43.80;;;;;;2399897;53;20935;-73
2022/06/15 00:11:10;;;;;;;3.55;1.42;;;20.40;43.50;;;;;;2374532;53;20973;-73
2022/06/15 00:13:40;;;;;;;2.95;1.08;;;20.40;43.80;;;;;;2386625;53;21961;-74
2022/06/15 00:16:08;;;;;;;2.78;1.10;;;20.30;43.60;;;;;;2397132;53;21315;-75
2022/06/15 00:18:34;;;;;;;2.30;1.20;;;20.30;43.80;;;;;;2399662;53;21868;-73
2022/06/15 00:21:01;;;;;;;3.15;1.25;;;20.30;43.80;;;;;;2398816;53;20907;-73
2022/06/15 00:23:28;;;;;;;2.72;1.30;;;20.20;43.80;;;;;;2399938;53;20972;-72
2022/06/15 00:25:54;;;;;;;3.15;1.33;;;20.20;43.80;;;;;;2392822;53;20942;-74
2022/06/15 00:28:21;;;;;;;2.45;1.17;;;20.20;43.90;;;;;;2387356;53;20951;-74
2022/06/15 00:30:49;;;;;;;4.00;1.25;;;20.10;43.90;;;;;;2380537;53;20952;-72
2022/06/15 00:33:21;;;;;;;3.05;1.30;;;20.10;44.00;;;;;;2373727;52;20990;-73
2022/06/15 00:35:57;;;;;;;2.45;1.10;;;20.10;44.10;;;;;;2398208;53;20951;-73
2022/06/15 00:38:37;;;;;;;3.22;1.23;;;20.10;44.30;;;;;;2658994;52;20927;-72
2022/06/15 00:41:04;;;;;;;2.78;1.10;;;20.00;44.30;;;;;;2399809;53;20915;-76
2022/06/15 00:43:37;;;;;;;3.08;1.50;;;20.00;44.20;;;;;;2580222;52;21808;-72
2022/06/15 00:47:56;;;;;;;4.55;1.37;;;20.00;44.30;;;;;;2400064;53;21754;-73
2022/06/15 00:50:24;;;;;;;2.70;1.37;;;19.90;44.90;;;;;;2395335;53;20951;-73
2022/06/15 00:52:55;;;;;;;3.10;1.27;;;19.80;44.30;;;;;;2645478;52;20973;-72
2022/06/15 00:55:29;;;;;;;2.33;1.10;;;19.80;44.40;;;;;;2377743;52;20954;-72
2022/06/15 00:58:01;;;;;;;2.60;1.20;;;19.80;44.70;;;;;;2399448;53;21046;-72
2022/06/15 01:00:27;;;;;;;;;;;19.70;44.60;;;;;;2403269;53;20971;-72
2022/06/15 01:02:54;;;;;;;2.92;1.15;;;19.70;44.80;;;;;;2399541;53;20120;-73
2022/06/15 01:05:22;;;;;;;3.85;1.20;;;19.70;44.40;;;;;;2399594;53;20967;-73
2022/06/15 01:11:38;;;;;;;2.17;1.15;;;19.70;44.60;;;;;;2399650;53;21058;-73
2022/06/15 01:16:12;;;;;;;2.15;1.08;;;19.60;45.10;;;;;;2379264;53;21456;-74
2022/06/15 01:21:46;;;;;;;2.28;0.98;;;19.60;45.10;;;;;;2400404;53;20931;-73
2022/06/15 01:26:17;;;;;;;2.50;1.10;;;19.50;44.90;;;;;;2400109;53;20931;-72
2022/06/15 01:30:31;;;;;;;3.35;1.15;;;19.40;45.10;;;;;;2383185;53;20953;-73
2022/06/15 01:33:08;;;;;;;2.30;1.15;;;19.30;45.00;;;;;;2627634;52;20937;-75
2022/06/15 01:42:29;;;;;;;2.90;1.20;;;19.30;45.00;;;;;;2387438;53;20990;-73
2022/06/15 01:45:07;;;;;;;2.15;1.02;;;19.20;45.10;;;;;;2399872;53;21521;-72
2022/06/15 01:47:33;;;;;;;2.87;1.27;;;19.10;44.80;;;;;;2394035;52;21026;-74
2022/06/15 01:50:12;;;;;;;2.60;1.20;;;19.10;44.90;;;;;;2398791;53;21856;-75
2022/06/15 01:52:41;;;;;;;2.25;1.02;;;19.00;45.20;;;;;;2400813;53;21051;-75
2022/06/15 01:57:00;;;;;;;3.97;1.55;;;19.00;45.80;;;;;;2381572;53;21420;-73
2022/06/15 01:59:35;;;;;;;3.22;1.20;;;18.90;45.60;;;;;;2397912;53;20955;-72
2022/06/15 02:02:19;;;;;;;2.95;1.30;;;18.90;45.90;;;;;;2399920;53;20951;-72
2022/06/15 02:05:18;;;;;;;2.72;1.30;;;18.80;45.50;;;;;;2483846;52;21004;-75
2022/06/15 02:08:36;;;;;;;3.00;1.15;;;18.80;46.00;;;;;;2484938;52;20959;-72
2022/06/15 02:11:29;;;;;;;2.25;1.25;;;18.80;46.00;;;;;;2364833;53;20954;-74
2022/06/15 02:14:16;;;;;;;2.55;1.00;;;18.70;46.20;;;;;;2390034;53;20924;-73
2022/06/15 02:16:46;;;;;;;3.03;1.35;;;18.70;45.90;;;;;;2380564;53;20940;-72
2022/06/15 02:19:14;;;;;;;2.58;1.42;;;18.60;45.60;;;;;;2397584;53;21050;-72
2022/06/15 02:21:41;;;;;;;3.45;1.70;;;18.60;45.80;;;;;;2383008;53;21501;-72
2022/06/15 02:24:07;;;;;;;3.05;1.33;;;18.60;46.00;;;;;;2394934;53;20936;-72
2022/06/15 02:26:36;;;;;;;2.33;1.10;;;18.60;46.00;;;;;;2399792;53;21846;-73
2022/06/15 02:29:06;;;;;;;4.12;1.50;;;18.50;45.90;;;;;;2400047;53;21010;-73
2022/06/15 02:31:32;;;;;;;2.90;1.27;;;18.50;46.10;;;;;;2657371;52;21403;-73
2022/06/15 02:34:01;;;;;;;2.50;1.20;;;18.50;46.00;;;;;;2399418;53;20912;-72
2022/06/15 02:36:27;;;;;;;3.12;1.08;;;18.50;46.00;;;;;;2399966;53;20991;-72
2022/06/15 02:38:53;;;;;;;2.83;1.10;;;18.40;46.00;;;;;;2400068;53;20963;-74
2022/06/15 02:41:20;;;;;;;3.45;1.30;;;18.40;46.20;;;;;;2399796;53;21333;-75
2022/06/15 02:43:50;;;;;;;2.47;1.17;;;18.40;46.20;;;;;;2399839;53;20995;-73
2022/06/15 02:46:16;;;;;;;2.83;1.42;;;18.40;46.30;;;;;;2369738;53;20958;-72
2022/06/15 02:48:42;;;;;;;2.22;1.15;;;18.30;46.20;;;;;;2388853;53;21827;-73
2022/06/15 02:51:14;;;;;;;2.83;1.40;;;18.30;46.20;;;;;;2399995;53;20975;-73
2022/06/15 02:53:47;;;;;;;2.78;1.30;;;18.30;46.60;;;;;;2421615;52;21033;-72
2022/06/15 02:56:13;;;;;;;2.28;1.20;;;18.30;46.60;;;;;;2400048;53;20987;-73
2022/06/15 02:58:44;;;;;;;2.08;1.08;;;18.20;46.40;;;;;;2368226;53;21013;-73
2022/06/15 03:01:10;;;;;;;3.10;1.35;;;18.20;46.50;;;;;;2390307;52;21026;-72
2022/06/15 03:03:37;;;;;;;3.80;1.40;;;18.20;46.50;;;;;;2399653;53;21673;-72
2022/06/15 03:06:19;;;;;;;2.15;1.00;;;18.20;46.60;;;;;;2399526;53;21027;-73
2022/06/15 03:08:45;;;;;;;2.55;1.02;;;18.10;46.70;;;;;;2400134;53;20967;-73
2022/06/15 03:11:12;;;;;;;2.30;1.17;;;18.10;46.50;;;;;;2400002;53;21019;-72
2022/06/15 03:13:39;;;;;;;4.25;1.50;;;18.10;46.50;;;;;;2399336;53;21169;-73
2022/06/15 03:16:05;;;;;;;2.28;1.25;;;18.00;46.70;;;;;;2399743;53;21288;-72
2022/06/15 03:18:32;;;;;;;2.65;1.15;;;18.10;46.90;;;;;;2360686;53;20926;-73
2022/06/15 03:21:02;;;;;;;2.72;1.20;;;18.00;46.80;;;;;;2388198;53;21653;-73
2022/06/15 03:23:28;;;;;;;2.42;1.30;;;18.00;47.50;;;;;;2400353;53;20928;-76
2022/06/15 03:25:59;;;;;;;2.90;1.35;;;18.00;46.80;;;;;;2399969;53;21623;-73
2022/06/15 03:28:26;;;;;;;3.15;1.33;;;17.90;47.00;;;;;;2616772;52;21002;-73
2022/06/15 03:30:52;;;;;;;2.55;1.20;;;17.90;46.90;;;;;;2399891;53;20955;-72
2022/06/15 03:33:20;;;;;;;2.60;1.12;;;17.90;46.90;;;;;;2400301;53;20923;-71
2022/06/15 03:35:48;;;;;;;2.70;1.23;;;17.90;47.00;;;;;;2400001;53;20939;-74
2022/06/15 03:38:18;;;;;;;3.03;1.30;;;17.90;47.00;;;;;;2400319;53;20919;-74
2022/06/15 03:40:47;;;;;;;3.80;1.40;;;17.90;47.30;;;;;;2485791;52;20931;-72
2022/06/15 03:43:14;;;;;;;2.90;1.30;;;17.80;47.20;;;;;;2378327;53;21867;-75
2022/06/15 03:45:42;;;;;;;3.08;1.30;;;17.80;47.10;;;;;;2399432;53;20951;-75
2022/06/15 03:48:09;;;;;;;2.22;1.00;;;17.80;47.10;;;;;;2398224;53;20932;-73
2022/06/15 03:50:37;;;;;;;2.55;1.20;;;17.70;47.00;;;;;;2385763;53;20971;-72
2022/06/15 03:53:04;;;;;;;2.60;1.30;;;17.70;47.00;;;;;;2394953;53;20956;-72
2022/06/15 03:55:31;;;;;;;3.03;1.30;;;17.70;47.00;;;;;;2390724;53;20984;-75
2022/06/15 03:57:59;;;;;;;3.30;1.15;;;17.70;47.20;;;;;;2385084;53;20959;-74
2022/06/15 04:00:27;;;;;;;2.10;1.00;;;17.60;47.30;;;;;;2398956;53;21018;-73
2022/06/15 04:02:54;;;;;;;2.40;1.17;;;17.60;47.50;;;;;;2402082;53;21578;-71
2022/06/15 04:05:22;;;;;;;1.80;0.85;;;17.60;47.50;;;;;;2377308;53;20914;-71
2022/06/15 04:10:35;;;;;;;2.40;1.20;;;17.60;47.50;;;;;;2379018;53;21050;-75
2022/06/15 04:13:02;;;;;;;2.85;1.20;;;17.50;47.50;;;;;;2382364;53;21111;-75
2022/06/15 04:15:30;;;;;;;2.85;1.30;;;17.50;47.60;;;;;;2398643;53;20932;-75
2022/06/15 04:17:56;;;;;;;2.30;1.30;;;17.60;47.80;;;;;;2366051;53;20966;-72
2022/06/15 04:20:33;;;;;;;3.58;1.27;;;17.50;47.80;;;;;;2385613;53;21036;-73
2022/06/15 04:23:13;;;;;;;2.40;1.20;;;17.50;47.90;;;;;;2356679;53;20976;-74
2022/06/15 04:25:51;;;;;;;2.80;1.37;;;17.50;48.10;;;;;;2346211;53;22209;-73
2022/06/15 04:28:20;;;;;;;2.90;1.35;;;17.50;47.90;;;;;;2352081;53;21060;-75
2022/06/15 04:30:47;;;;;;;3.25;1.30;;;17.50;48.00;;;;;;2383093;53;21021;-75
2022/06/15 04:33:14;;;;;;;2.70;1.23;;;17.50;48.10;;;;;;2414314;52;21041;-75
2022/06/15 04:35:41;;;;;;;2.50;1.30;;;17.50;48.20;;;;;;2491752;52;21005;-76
2022/06/15 04:38:11;;;;;;;4.20;1.70;;;17.40;48.20;;;;;;2368371;53;21746;-73
2022/06/15 04:40:37;;;;;;;4.85;1.27;;;17.50;48.40;;;;;;2369909;53;21050;-74
2022/06/15 04:43:07;;;;;;;2.90;1.35;;;17.50;48.40;;;;;;2355083;53;20934;-72
2022/06/15 04:45:35;;;;;;;2.37;1.27;;;17.50;48.60;;;;;;2397959;53;21019;-72
2022/06/15 04:48:01;;;;;;;4.18;1.58;;;17.50;48.60;;;;;;2399596;53;20948;-72
2022/06/15 04:50:29;;;;;;;3.40;1.37;;;17.50;48.70;;;;;;2639794;52;21775;-73
2022/06/15 04:52:55;;;;;;;3.17;1.50;;;17.50;48.70;;;;;;2354620;53;20916;-71
2022/06/15 04:55:22;;;;;;;3.08;1.50;;;17.50;48.70;;;;;;2381796;53;21628;-72
2022/06/15 04:57:53;;;;;;;2.78;1.50;;;17.60;49.00;;;;;;2389240;53;21030;-72
2022/06/15 05:00:19;;;;;;;3.10;1.45;;;17.60;49.00;;;;;;2399351;53;20918;-73
2022/06/15 05:02:48;;;;;;;2.85;1.45;;;17.60;49.00;;;;;;2398455;53;20983;-74
2022/06/15 05:05:15;;;;;;;3.83;1.48;;;17.70;49.20;;;;;;2405671;52;20923;-72
2022/06/15 05:07:42;;;;;;;2.80;1.42;;;17.70;49.30;;;;;;2624442;52;20999;-75
2022/06/15 05:10:12;;;;;;;3.37;1.60;;;17.70;49.30;;;;;;2658845;52;20971;-72
2022/06/15 05:12:39;;;;;;;4.05;1.85;;;17.80;49.50;;;;;;2657043;52;21362;-73
2022/06/15 05:15:06;;;;;;;3.20;1.33;;;17.80;49.50;;;;;;2399511;53;21376;-73
2022/06/15 05:17:32;;;;;;;2.50;1.25;;;17.80;49.60;;;;;;2424730;52;21405;-72
2022/06/15 05:19:59;;;;;;;2.80;1.35;;;17.90;49.60;;;;;;2399384;53;20935;-74
2022/06/15 05:22:25;;;;;;;3.10;1.48;;;17.90;49.70;;;;;;2373873;53;20937;-73
2022/06/15 05:24:51;;;;;;;5.32;1.70;;;17.90;49.80;;;;;;2390276;52;20931;-73
2022/06/15 05:27:18;;;;;;;3.65;1.50;;;18.00;49.90;;;;;;2393226;53;21028;-73
2022/06/15 05:29:44;;;;;;;2.62;1.33;;;18.00;50.00;;;;;;2371804;52;21058;-73
2022/06/15 05:32:11;;;;;;;3.40;1.60;;;18.10;50.20;;;;;;2369746;53;20927;-73
2022/06/15 05:34:37;;;;;;;2.90;1.50;;;18.20;50.40;;;;;;2399826;53;20915;-75
2022/06/15 05:37:04;;;;;;;2.97;1.40;;;18.20;50.40;;;;;;2399966;53;21487;-75
2022/06/15 05:39:30;;;;;;;3.72;1.27;;;18.30;50.60;;;;;;2399080;53;20927;-76
2022/06/15 05:41:57;;;;;;;2.65;1.35;;;18.30;50.60;;;;;;2399021;53;21011;-75
2022/06/15 05:44:30;;;;;;;2.92;1.60;;;18.40;50.70;;;;;;2398759;53;20943;-72
2022/06/15 05:46:58;;;;;;;3.10;1.33;;;18.50;50.90;;;;;;2370191;52;21003;-73
2022/06/15 05:49:25;;;;;;;3.30;1.62;;;18.50;50.90;;;;;;2365969;53;20977;-73
2022/06/15 05:51:52;;;;;;;3.87;1.50;;;18.60;51.00;;;;;;2372590;53;21719;-75
2022/06/15 05:54:27;;;;;;;2.75;1.55;;;18.70;51.10;;;;;;2363152;53;20934;-74
2022/06/15 05:56:53;;;;;;;2.53;1.33;;;18.80;52.10;;;;;;2365498;53;21057;-73
2022/06/15 05:59:20;;;;;;;2.80;1.45;;;18.90;51.20;;;;;;2374034;53;21033;-74
2022/06/15 06:01:47;;;;;;;3.25;1.60;;;19.00;51.30;;;;;;2359816;53;20962;-73
2022/06/15 06:04:17;;;;;;;3.42;1.40;;;19.10;51.40;;;;;;2390827;53;21028;-74
2022/06/15 06:06:45;;;;;;;3.15;1.40;;;19.20;51.50;;;;;;2382571;53;20984;-75
2022/06/15 06:09:11;;;;;;;2.47;1.30;;;19.30;51.30;;;;;;2387167;53;20959;-73
2022/06/15 06:11:38;;;;;;;3.35;1.60;;;19.40;51.30;;;;;;2374870;53;21003;-73
2022/06/15 06:14:05;;;;;;;3.53;1.42;;;19.50;51.30;;;;;;2398989;53;21015;-75
2022/06/15 06:16:31;;;;;;;2.37;1.25;;;19.60;51.30;;;;;;2398459;53;20939;-75
2022/06/15 06:18:57;;;;;;;2.97;1.50;;;19.60;51.20;;;;;;2400397;53;21693;-74
2022/06/15 06:21:24;;;;;;;3.12;1.50;;;19.70;51.30;;;;;;2370222;53;21021;-73
2022/06/15 06:23:50;;;;;;;4.45;1.60;;;19.80;51.30;;;;;;2387397;53;21019;-74
2022/06/15 06:26:59;;;;;;;4.95;1.80;;;19.90;51.20;;;;;;2385232;53;21084;-73
2022/06/15 06:29:25;;;;;;;3.20;1.55;;;20.10;51.50;;;;;;2515652;52;20947;-73
2022/06/15 06:31:52;;;;;;;2.75;1.58;;;20.20;51.10;;;;;;2398739;53;21027;-74
2022/06/15 06:34:18;;;;;;;3.00;1.50;;;20.20;51.10;;;;;;2399036;53;20916;-74
2022/06/15 06:36:45;;;;;;;3.03;1.60;;;20.30;51.00;;;;;;2578913;52;21464;-74
2022/06/15 06:39:30;;;;;;;4.28;1.92;;;20.40;51.10;;;;;;2394358;53;21012;-73
2022/06/15 06:41:58;;;;;;;2.40;1.15;;;20.50;51.50;;;;;;2384889;53;21377;-73
2022/06/15 06:44:24;;;;;;;3.28;1.33;;;20.60;51.20;;;;;;2399525;53;20967;-75
2022/06/15 06:46:51;;;;;;;4.20;1.77;;;20.70;51.20;;;;;;2376751;53;21136;-75
2022/06/15 06:49:17;;;;;;;3.50;1.70;;;20.80;51.30;;;;;;2396224;53;20927;-73
2022/06/15 06:51:43;;;;;;;4.43;1.80;;;20.90;51.30;;;;;;2399226;53;20991;-75
2022/06/15 06:54:11;;;;;;;3.35;1.37;;;20.90;51.30;;;;;;2399277;53;20932;-76
2022/06/15 06:56:38;;;;;;;5.15;1.98;;;21.00;51.30;;;;;;2401917;53;21763;-73
2022/06/15 06:59:05;;;;;;;3.80;1.65;;;21.10;51.30;;;;;;2371694;53;20897;-73
2022/06/15 07:01:31;;;;;;;4.35;1.98;;;21.20;51.20;;;;;;2379863;53;20993;-75
2022/06/15 07:03:57;;;;;;;3.28;1.80;;;21.30;51.20;;;;;;2384343;53;21066;-74
2022/06/15 07:06:24;;;;;;;4.87;1.80;;;21.40;51.40;;;;;;2401018;53;20923;-75
2022/06/15 07:08:53;;;;;;;3.00;1.50;;;21.50;51.40;;;;;;2384849;53;21032;-73
2022/06/15 07:11:20;;;;;;;3.67;1.60;;;21.60;51.40;;;;;;2363466;53;20951;-76
2022/06/15 07:13:47;;;;;;;3.33;1.75;;;21.70;51.30;;;;;;2376608;53;20925;-74
2022/06/15 07:16:17;;;;;;;3.42;1.45;;;21.80;51.20;;;;;;2554809;52;20993;-74
2022/06/15 07:18:44;;;;;;;3.00;1.48;;;21.90;51.30;;;;;;2657588;52;20971;-74
2022/06/15 07:21:13;;;;;;;4.05;1.58;;;22.00;51.30;;;;;;2399399;53;20907;-74
2022/06/15 07:23:40;;;;;;;2.97;1.35;;;22.10;51.40;;;;;;2402211;53;21345;-74
2022/06/15 07:26:10;;;;;;;3.70;1.90;;;22.20;51.40;;;;;;2374720;53;20932;-75
2022/06/15 07:28:36;;;;;;;4.72;1.62;;;22.30;51.50;;;;;;2390441;53;21009;-73
2022/06/15 07:31:03;;;;;;;3.85;1.67;;;22.40;51.40;;;;;;2378745;53;21199;-73
2022/06/15 07:33:29;;;;;;;3.37;1.73;;;22.50;51.30;;;;;;2389762;53;21501;-75
2022/06/15 07:35:55;;;;;;;2.62;1.40;;;22.60;51.10;;;;;;2377043;53;20966;-76
2022/06/15 07:38:23;;;;;;;5.00;1.77;;;22.70;51.00;;;;;;2398445;53;20999;-74
2022/06/15 07:40:58;;;;;;;3.17;1.77;;;22.80;51.10;;;;;;2397180;53;20987;-73
2022/06/15 07:43:24;;;;;;;3.03;1.73;;;23.00;51.10;;;;;;2398511;53;20903;-74
2022/06/15 07:45:50;;;;;;;3.45;1.75;;;23.10;51.00;;;;;;2500956;52;20920;-73
2022/06/15 07:51:01;;;;;;;3.22;1.60;;;23.30;50.80;;;;;;2399767;53;20956;-75
2022/06/15 07:53:28;;;;;;;3.47;1.62;;;23.40;50.70;;;;;;2411298;52;20943;-74
2022/06/15 07:55:54;;;;;;;2.87;1.58;;;23.50;50.70;;;;;;2657949;52;21523;-75
2022/06/15 07:58:20;;;;;;;4.30;2.00;;;23.60;50.50;;;;;;2543844;52;21461;-74
2022/06/15 08:00:50;;;;;;;4.97;2.50;;;23.70;50.50;;;;;;2573831;52;20927;-75
2022/06/15 08:03:18;;;;;;;4.85;1.98;;;23.80;50.40;;;;;;2397229;53;20933;-73
2022/06/15 08:05:47;;;;;;;3.10;1.70;;;23.90;50.40;;;;;;2402781;52;21067;-74
2022/06/15 08:08:16;;;;;;;3.97;1.90;;;24.10;51.10;;;;;;2416498;52;21058;-73
2022/06/15 08:10:43;;;;;;;3.50;1.80;;;24.10;50.20;;;;;;2371250;54;20977;-74
2022/06/15 08:13:10;;;;;;;3.87;1.85;;;24.20;49.90;;;;;;2568696;52;20965;-75
2022/06/15 08:15:36;;;;;;;3.97;2.05;;;24.40;49.80;;;;;;2361385;53;21029;-74
2022/06/15 08:18:06;;;;;;;3.80;2.05;;;24.40;49.60;;;;;;2480571;52;20938;-74
2022/06/15 08:20:38;;;;;;;3.28;1.92;;;24.50;49.50;;;;;;2370276;52;21799;-75
2022/06/15 08:23:07;;;;;;;3.50;1.70;;;24.60;49.50;;;;;;2554201;52;20946;-74
2022/06/15 08:25:37;;;;;;;4.20;1.95;;;24.70;49.40;;;;;;2361412;54;20987;-74
2022/06/15 08:28:04;;;;;;;4.20;1.87;;;24.80;49.30;;;;;;2352416;53;20949;-76
2022/06/15 08:30:30;;;;;;;3.58;2.00;;;24.90;49.50;;;;;;2366816;53;21002;-74
2022/06/15 08:32:56;;;;;;;3.72;2.12;;;25.00;49.30;;;;;;2420155;52;20914;-75
2022/06/15 08:35:23;;;;;;;4.43;2.20;;;25.10;49.20;;;;;;2369927;53;20941;-75
2022/06/15 08:37:49;;;;;;;3.03;1.65;;;25.20;49.00;;;;;;2371849;53;21504;-76
2022/06/15 08:40:15;;;;;;;4.05;1.85;;;25.30;48.80;;;;;;2370675;53;20945;-75
2022/06/15 08:43:16;;;;;;;3.85;1.60;;;25.30;48.60;;;;;;2369569;53;20957;-73
2022/06/15 08:45:49;;;;;;;2.50;1.30;;;25.50;48.20;;;;;;2370199;53;20895;-74
2022/06/15 08:51:59;;;;;;;2.87;1.33;;;25.50;48.40;;;;;;2622654;52;21450;-75
2022/06/15 08:54:35;;;;;;;4.47;1.80;;;25.70;48.20;;;;;;2573545;52;21071;-74
2022/06/15 08:57:17;;;;;;;3.65;1.30;;;25.90;48.20;;;;;;2440058;52;20972;-75
2022/06/15 09:00:16;;;;;;;3.60;1.37;;;25.90;48.00;;;;;;2625640;52;21496;-76
2022/06/15 09:04:46;;;;;;;4.30;1.73;;;26.00;47.80;;;;;;2462041;52;21023;-75
2022/06/15 09:07:36;;;;;;;2.97;1.60;;;26.10;47.60;;;;;;2395194;53;20947;-74
2022/06/15 09:10:47;;;;;;;4.07;1.80;;;26.30;47.60;;;;;;2395108;53;21263;-75
2022/06/15 09:13:43;;;;;;;6.50;1.65;;;26.40;47.30;;;;;;2394532;53;20938;-74
2022/06/15 09:16:40;;;;;;;2.72;1.48;;;26.50;47.20;;;;;;2395805;53;20931;-74
2022/06/15 09:19:12;;;;;;;3.58;1.60;;;26.60;46.80;;;;;;2378211;53;21039;-74
2022/06/15 09:21:51;;;;;;;2.92;1.60;;;26.70;46.90;;;;;;2532398;52;20939;-76
2022/06/15 09:24:28;;;;;;;3.87;1.83;;;26.80;46.60;;;;;;2652769;52;20943;-74
2022/06/15 09:26:56;;;;;;;3.17;1.58;;;26.90;46.70;;;;;;2394565;53;21531;-75
2022/06/15 09:30:09;;;;;;;2.87;1.45;;;27.00;46.70;;;;;;2652315;52;20983;-75
2022/06/15 09:32:39;;;;;;;3.15;1.48;;;27.00;46.60;;;;;;2392182;53;20990;-75
2022/06/15 09:35:27;;;;;;;3.42;1.30;;;27.20;47.40;;;;;;2436559;52;21467;-75
2022/06/15 09:37:56;;;;;;;3.08;1.50;;;27.30;46.60;;;;;;2394742;53;21018;-75
2022/06/15 09:40:29;;;;;;;3.40;1.70;;;27.40;46.60;;;;;;2383030;53;20925;-76
2022/06/15 09:44:06;;;;;;;3.78;1.70;;;27.50;46.50;;;;;;2606350;52;20947;-74
2022/06/15 09:47:11;;;;;;;2.70;1.10;;;27.60;45.80;;;;;;2463839;52;21032;-76
2022/06/15 09:51:45;;;;;;;3.03;1.60;;;27.70;45.40;;;;;;2393094;52;21027;-75
2022/06/15 09:54:42;;;;;;;2.45;1.25;;;27.90;45.60;;;;;;2652348;52;20924;-76
2022/06/15 09:57:13;;;;;;;3.53;1.08;;;28.00;45.00;;;;;;2393841;53;20936;-75
2022/06/15 09:59:39;;;;;;;3.05;1.30;;;28.10;45.00;;;;;;2395244;53;20935;-76
2022/06/15 10:02:25;;;;;;;3.10;1.52;;;28.10;45.00;;;;;;2395100;53;20915;-76
2022/06/15 10:04:51;;;;;;;2.80;1.50;;;28.20;44.80;;;;;;2394769;53;21020;-76
2022/06/15 10:07:28;;;;;;;2.80;1.52;;;28.30;44.70;;;;;;2390695;53;21064;-76
2022/06/15 10:10:14;;;;;;;3.90;1.23;;;28.40;44.50;;;;;;2554893;52;20997;-75
2022/06/15 10:13:08;;;;;;;3.50;1.33;;;28.50;44.70;;;;;;2394160;53;20939;-77
2022/06/15 10:16:01;;;;;;;2.65;1.30;;;28.50;44.20;;;;;;2394874;53;21011;-75
2022/06/15 10:19:29;;;;;;;2.95;1.27;;;28.60;43.70;;;;;;2394511;53;21715;-75
2022/06/15 10:22:08;;;;;;;3.00;1.17;;;28.80;44.00;;;;;;2394572;53;20968;-75
2022/06/15 10:24:36;;;;;;;3.40;1.30;;;28.80;43.90;;;;;;2375680;53;20931;-75
2022/06/15 10:27:40;;;;;;;4.25;1.42;;;28.90;43.90;;;;;;2380800;53;21031;-75
2022/06/15 10:30:49;;;;;;;2.72;1.30;;;29.00;43.40;;;;;;2391927;53;21057;-76
2022/06/15 10:33:19;;;;;;;2.37;1.20;;;29.10;43.10;;;;;;2530301;52;20987;-76
2022/06/15 10:36:01;;;;;;;2.70;1.30;;;29.20;43.40;;;;;;2449477;52;20975;-76
2022/06/15 10:38:28;;;;;;;3.47;1.40;;;29.30;43.20;;;;;;2394833;53;20915;-75
2022/06/15 10:41:45;;;;;;;2.35;1.17;;;29.40;43.30;;;;;;2396202;53;20908;-76
2022/06/15 10:47:54;;;;;;;3.25;1.12;;;29.50;43.00;;;;;;2394547;53;20940;-75
2022/06/15 10:50:30;;;;;;;2.05;0.95;;;29.70;42.70;;;;;;2395331;53;20936;-75
2022/06/15 10:53:06;;;;;;;1.80;0.85;;;29.80;42.10;;;;;;2394140;53;21070;-76
2022/06/15 11:03:25;;;;;;;;;;;30.00;40.90;;;;;;2379715;53;20937;-75
2022/06/15 11:05:53;;;;;;;2.12;0.90;;;30.10;41.40;;;;;;2394293;53;20112;-77
2022/06/15 11:08:22;;;;;;;2.35;0.95;;;30.20;41.30;;;;;;2394524;53;20987;-76
2022/06/15 11:10:52;;;;;;;2.35;1.10;;;30.30;40.90;;;;;;2394286;53;20952;-76
2022/06/15 11:13:41;;;;;;;2.78;1.05;;;30.40;40.50;;;;;;2395034;53;20943;-75
2022/06/15 11:18:06;;;;;;;2.22;1.08;;;30.40;39.20;;;;;;2652432;52;20939;-76
2022/06/15 11:21:05;;;;;;;2.12;0.93;;;30.50;40.10;;;;;;2394314;53;20948;-76
2022/06/15 11:23:51;;;;;;;3.03;1.02;;;30.60;39.30;;;;;;2511191;52;20988;-75
2022/06/15 11:26:55;;;;;;;2.80;1.10;;;30.70;39.50;;;;;;2608965;52;21019;-75
2022/06/15 11:29:52;;;;;;;2.15;0.93;;;30.70;39.20;;;;;;2402703;53;21031;-75
2022/06/15 11:34:09;;;;;;;3.17;1.02;;;30.80;38.90;;;;;;2649557;52;20947;-77
2022/06/15 11:36:55;;;;;;;4.70;1.20;;;30.90;39.10;;;;;;2623339;52;20951;-75
2022/06/15 11:39:48;;;;;;;2.20;0.90;;;31.00;38.70;;;;;;2377464;53;21888;-75
2022/06/15 11:42:16;;;;;;;1.87;1.00;;;31.10;38.80;;;;;;2400713;53;20978;-75
2022/06/15 11:44:43;;;;;;;4.95;1.17;;;31.10;38.90;;;;;;2359683;53;21064;-77
2022/06/15 11:49:01;;;;;;;2.08;0.90;;;31.20;38.50;;;;;;2401614;52;20961;-75
2022/06/15 11:55:14;;;;;;;2.58;0.90;;;31.30;37.90;;;;;;2403790;52;21002;-76
2022/06/15 12:01:23;;;;;;;1.58;0.60;;;31.50;38.10;;;;;;2392495;53;21015;-77
2022/06/15 12:04:37;;;;;;;1.23;0.60;;;31.70;37.90;;;;;;2441736;52;20982;-76
2022/06/15 12:09:54;;;;;;;2.50;0.82;;;31.70;36.60;;;;;;2391835;53;20928;-77
2022/06/15 12:13:45;;;;;;;1.42;0.60;;;31.80;36.70;;;;;;2570744;52;21044;-76
2022/06/15 12:16:35;;;;;;;1.50;0.70;;;31.90;36.50;;;;;;2376228;53;1361538;-76
2022/06/15 12:19:21;;;;;;;2.90;0.80;;;31.90;35.30;;;;;;2379226;53;20951;-76
2022/06/15 12:22:43;;;;;;;1.87;0.80;;;32.00;35.10;;;;;;2392927;53;21016;-75
2022/06/15 12:25:50;;;;;;;2.12;0.70;;;32.10;34.80;;;;;;2625202;52;21728;-75
2022/06/15 12:28:28;;;;;;;1.70;0.73;;;32.10;34.60;;;;;;2399030;53;21026;-75
2022/06/15 12:31:11;;;;;;;1.80;0.80;;;32.20;34.90;;;;;;2413547;52;21010;-76
2022/06/15 12:36:04;;;;;;;1.55;0.70;;;32.20;34.00;;;;;;2643242;52;20954;-75
2022/06/15 12:38:58;;;;;;;2.12;0.70;;;32.30;33.70;;;;;;2380821;53;20973;-75
2022/06/15 12:42:17;;;;;;;1.80;0.80;;;32.40;33.80;;;;;;2399547;53;20995;-75
2022/06/15 12:44:56;;;;;;;1.45;0.65;;;32.40;34.10;;;;;;2398767;53;20912;-74
2022/06/15 12:47:23;;;;;;;1.50;0.57;;;32.50;34.00;;;;;;2399170;53;21050;-75
2022/06/15 12:53:41;;;;;;;2.12;0.90;;;32.50;33.90;;;;;;2657632;52;21003;-75
2022/06/15 12:56:23;;;;;;;2.62;1.10;;;32.50;33.20;;;;;;2400955;53;20979;-74
2022/06/15 13:00:45;;;;;;;2.37;0.95;;;32.70;33.40;;;;;;2372671;53;21022;-77
2022/06/15 13:04:05;;;;;;;2.08;0.80;;;32.80;33.70;;;;;;2380275;53;20925;-74
2022/06/15 13:06:33;;;;;;;2.12;0.85;;;32.80;33.20;;;;;;2512846;52;20944;-74
2022/06/15 13:09:20;;;;;;;2.05;0.93;;;32.80;33.30;;;;;;2378013;53;21934;-76
2022/06/15 13:12:19;;;;;;;2.00;0.93;;;32.90;33.10;;;;;;2381968;53;21424;-78
2022/06/15 13:16:08;;;;;;;2.22;1.00;;;33.00;32.80;;;;;;2337403;52;22421;-73
2022/06/15 13:18:51;;;;;;;2.08;0.80;;;33.00;33.10;;;;;;2330296;53;20957;-74
2022/06/15 13:21:18;;;;;;;1.98;0.90;;;33.10;32.70;;;;;;2329724;54;21099;-73
2022/06/15 13:24:21;;;;;;;2.25;0.85;;;33.20;33.30;;;;;;2348296;53;21023;-73
2022/06/15 13:26:52;;;;;;;2.50;0.95;;;33.20;32.80;;;;;;2318076;54;20953;-73
2022/06/15 13:29:24;;;;;;;2.33;0.98;;;33.30;32.70;;;;;;2330344;54;21493;-73
2022/06/15 13:32:05;;;;;;;2.15;0.80;;;33.40;32.60;;;;;;2329775;53;20921;-73
2022/06/15 13:34:52;;;;;;;1.73;0.90;;;33.50;31.90;;;;;;2573691;53;20996;-73
2022/06/15 13:37:23;;;;;;;2.12;0.70;;;33.50;31.80;;;;;;2445447;53;21513;-75
2022/06/15 13:39:52;;;;;;;2.28;0.85;;;33.50;31.70;;;;;;2302723;53;20958;-73
2022/06/15 13:49:09;;;;;;;2.22;1.08;;;33.60;31.80;;;;;;2333646;53;21745;-74
2022/06/15 13:51:55;;;;;;;2.12;0.82;;;33.60;31.60;;;;;;2341669;53;21509;-71
2022/06/15 13:57:37;;;;;;;2.90;1.10;;;33.80;31.60;;;;;;2343978;54;20949;-69
2022/06/15 14:00:20;;;;;;;1.92;0.70;;;33.80;30.80;;;;;;2517324;53;21032;-72
2022/06/15 14:03:17;;;;;;;1.77;0.60;;;34.00;31.10;;;;;;2341998;54;20954;-70
2022/06/15 14:08:55;;;;;;;1.80;0.70;;;34.00;30.60;;;;;;2342519;54;21683;-72
2022/06/15 14:13:11;;;;;;;1.70;0.80;;;34.00;30.60;;;;;;2339704;53;20960;-71
2022/06/15 14:15:58;;;;;;;1.33;0.65;;;34.20;30.90;;;;;;2334933;53;20956;-74
2022/06/15 14:18:50;;;;;;;3.53;1.00;;;34.20;30.70;;;;;;2326412;54;21046;-70
2022/06/15 14:21:28;;;;;;;1.40;0.70;;;34.30;30.20;;;;;;2344460;53;21026;-70
2022/06/15 14:23:55;;;;;;;2.40;1.10;;;34.30;30.20;;;;;;2546201;53;20938;-77
2022/06/15 14:26:32;;;;;;;2.62;1.05;;;34.30;30.60;;;;;;2595046;53;21323;-71
2022/06/15 14:29:01;;;;;;;4.65;1.10;;;34.40;30.30;;;;;;2355774;54;20978;-72
2022/06/15 14:31:31;;;;;;;;;;;34.40;30.60;;;;;;2340897;53;146998;-84
2022/06/15 14:34:03;;;;;;;2.30;0.80;;;34.50;31.00;;;;;;2306466;54;20068;-84
2022/06/15 14:36:29;;;;;;;1.87;0.75;;;34.60;30.60;;;;;;2549307;52;20949;-83
2022/06/15 14:39:00;;;;;;;2.30;1.00;;;34.60;30.30;;;;;;2331581;53;21008;-82
2022/06/15 14:41:29;;;;;;;2.33;0.85;;;34.60;30.00;;;;;;2563716;53;20947;-82
2022/06/15 14:43:55;;;;;;;2.00;0.90;;;34.60;29.80;;;;;;2562522;53;21384;-83
2022/06/15 14:46:24;;;;;;;2.25;0.90;;;34.60;29.70;;;;;;2590494;53;20926;-82
2022/06/15 14:48:53;;;;;;;1.80;0.90;;;34.70;29.70;;;;;;2589967;52;20927;-83
2022/06/15 14:51:27;;;;;;;1.87;0.82;;;34.70;29.70;;;;;;2344308;53;21824;-82